Time;durP1;ratioP1;P1;durP2;ratioP2;P2;SDS_P1;SDS_P2;PMS_P1;PMS_P2;Temp;Humidity;BMP_temperature;BMP_pressure;BME280_temperature;BME280_humidity;BME280_pressure;Samples;Min_cycle;Max_cycle;Signal;HPM_P1;HPM_P2
2023/10/03 00:01:48;;;;;;;18.53;8.77;;;17.90;99.90;;;;;;457093;260;29374;-71
2023/10/03 00:03:52;;;;;;;14.80;8.10;;;17.90;99.90;;;;;;457104;260;28993;-71
2023/10/03 00:05:51;;;;;;;15.03;7.50;;;17.90;99.90;;;;;;457047;256;29020;-71
2023/10/03 00:07:51;;;;;;;15.93;8.00;;;17.90;99.90;;;;;;457082;255;28988;-72
2023/10/03 00:09:53;;;;;;;17.57;8.93;;;17.80;99.90;;;;;;457104;260;28970;-73
2023/10/03 00:11:54;;;;;;;15.70;8.10;;;17.70;99.90;;;;;;457109;260;28943;-71
2023/10/03 00:13:55;;;;;;;14.07;7.90;;;17.70;99.90;;;;;;457114;260;28911;-72
2023/10/03 00:15:57;;;;;;;18.23;9.27;;;17.60;99.90;;;;;;457134;260;29328;-71
2023/10/03 00:17:58;;;;;;;11.70;7.20;;;17.60;99.90;;;;;;457097;260;29396;-70
2023/10/03 00:19:59;;;;;;;21.27;7.53;;;17.60;99.90;;;;;;457107;260;28971;-72
2023/10/03 00:22:00;;;;;;;13.47;7.43;;;17.50;99.90;;;;;;457116;260;28960;-71
2023/10/03 00:24:01;;;;;;;11.00;6.97;;;17.40;99.90;;;;;;457124;260;28902;-71
2023/10/03 00:26:04;;;;;;;15.13;7.63;;;17.40;99.90;;;;;;457102;260;28888;-71
2023/10/03 00:28:05;;;;;;;11.43;6.40;;;17.50;99.90;;;;;;457120;260;29046;-70
2023/10/03 00:30:06;;;;;;;12.73;6.90;;;17.60;99.90;;;;;;457125;260;29062;-71
2023/10/03 00:32:07;;;;;;;17.13;7.33;;;17.60;99.90;;;;;;457112;260;29407;-71
2023/10/03 00:34:08;;;;;;;11.60;7.30;;;17.50;99.90;;;;;;457031;260;29633;-71
2023/10/03 00:36:12;;;;;;;12.43;6.90;;;17.50;99.90;;;;;;457116;260;29392;-71
2023/10/03 00:38:13;;;;;;;12.30;7.37;;;17.60;99.90;;;;;;457117;260;28855;-73
2023/10/03 00:40:18;;;;;;;10.47;6.17;;;17.50;99.90;;;;;;457099;256;29017;-71
2023/10/03 00:42:19;;;;;;;10.73;6.60;;;17.50;99.90;;;;;;457132;260;29422;-71
2023/10/03 00:44:20;;;;;;;14.00;7.47;;;17.50;99.90;;;;;;457130;260;29404;-71
2023/10/03 00:46:21;;;;;;;12.43;7.23;;;17.50;99.90;;;;;;457128;260;28971;-71
2023/10/03 00:48:22;;;;;;;10.27;6.70;;;17.50;99.90;;;;;;457139;256;28970;-71
2023/10/03 00:50:23;;;;;;;10.70;6.93;;;17.40;99.90;;;;;;457125;260;28914;-71
2023/10/03 00:52:25;;;;;;;10.30;6.70;;;17.30;99.90;;;;;;457105;260;28853;-72
2023/10/03 00:54:27;;;;;;;11.90;6.90;;;17.30;99.90;;;;;;457073;260;28902;-71
2023/10/03 00:56:27;;;;;;;12.10;6.83;;;17.30;99.90;;;;;;457060;260;28899;-72
2023/10/03 00:58:31;;;;;;;11.40;6.60;;;17.30;99.90;;;;;;457110;260;29454;-71
2023/10/03 01:00:31;;;;;;;13.33;7.60;;;17.30;99.90;;;;;;457125;260;29466;-71
2023/10/03 01:02:31;;;;;;;10.60;6.10;;;17.30;99.90;;;;;;457126;260;29402;-72
2023/10/03 01:04:34;;;;;;;10.53;6.20;;;17.30;99.90;;;;;;457126;260;28870;-71
2023/10/03 01:06:34;;;;;;;10.33;6.23;;;17.30;99.90;;;;;;457130;260;28998;-72
2023/10/03 01:08:39;;;;;;;10.00;5.90;;;17.30;99.90;;;;;;457123;260;28953;-71
2023/10/03 01:10:36;;;;;;;14.03;7.00;;;17.30;99.90;;;;;;456661;260;28985;-71
2023/10/03 01:12:37;;;;;;;10.30;6.20;;;17.30;99.90;;;;;;457106;260;29007;-72
2023/10/03 01:14:41;;;;;;;8.50;5.20;;;17.40;99.90;;;;;;457126;260;29068;-71
2023/10/03 01:16:40;;;;;;;9.20;6.37;;;17.40;99.90;;;;;;457096;260;28895;-73
2023/10/03 01:18:42;;;;;;;9.53;6.30;;;17.40;99.90;;;;;;457120;255;29416;-71
2023/10/03 01:20:46;;;;;;;8.77;5.60;;;17.40;99.90;;;;;;457101;260;29486;-72
2023/10/03 01:22:44;;;;;;;9.60;5.83;;;17.30;99.90;;;;;;457047;256;29666;-73
2023/10/03 01:24:45;;;;;;;13.07;6.63;;;17.40;99.90;;;;;;457090;260;28966;-71
2023/10/03 01:26:46;;;;;;;8.03;5.30;;;17.60;99.90;;;;;;457128;260;28926;-71
2023/10/03 01:28:48;;;;;;;10.40;6.40;;;17.60;99.90;;;;;;457113;260;29028;-71
2023/10/03 01:30:51;;;;;;;9.23;5.73;;;17.50;99.90;;;;;;457087;260;29068;-71
2023/10/03 01:32:50;;;;;;;8.03;5.70;;;17.50;99.90;;;;;;457081;255;28980;-72
2023/10/03 01:34:51;;;;;;;9.30;5.80;;;17.60;99.90;;;;;;457111;260;29050;-71
2023/10/03 01:36:52;;;;;;;8.70;5.60;;;17.60;99.90;;;;;;457109;260;28984;-71
2023/10/03 01:38:53;;;;;;;9.10;6.20;;;17.50;99.90;;;;;;457162;260;28926;-71
2023/10/03 01:40:57;;;;;;;8.20;5.80;;;17.50;99.90;;;;;;456922;260;29408;-71
2023/10/03 01:42:56;;;;;;;11.37;6.23;;;17.50;99.90;;;;;;457097;256;29466;-72
2023/10/03 01:44:57;;;;;;;9.23;5.90;;;17.50;99.90;;;;;;457104;260;29568;-71
2023/10/03 01:47:01;;;;;;;11.73;5.63;;;17.60;99.90;;;;;;457093;260;28973;-71
2023/10/03 01:49:00;;;;;;;11.70;5.83;;;17.60;99.90;;;;;;457073;260;29010;-71
2023/10/03 01:51:02;;;;;;;9.23;5.50;;;17.50;99.90;;;;;;457107;260;28943;-70
2023/10/03 01:53:02;;;;;;;9.10;5.87;;;17.50;99.90;;;;;;457079;256;28996;-72
2023/10/03 01:55:03;;;;;;;8.73;5.83;;;17.50;99.90;;;;;;457109;260;28961;-71
2023/10/03 01:57:05;;;;;;;7.90;5.43;;;17.40;99.90;;;;;;457098;260;29000;-71
2023/10/03 01:59:07;;;;;;;12.03;6.27;;;17.40;99.90;;;;;;457112;259;29429;-72
2023/10/03 02:01:07;;;;;;;6.30;5.37;;;17.50;99.90;;;;;;457100;260;28958;-72
2023/10/03 02:03:12;;;;;;;7.37;5.17;;;17.50;99.90;;;;;;457119;257;29418;-72
2023/10/03 02:05:11;;;;;;;7.77;5.30;;;17.50;99.90;;;;;;457068;260;29439;-71
2023/10/03 02:07:12;;;;;;;8.47;5.30;;;17.50;99.90;;;;;;457074;260;29503;-72
2023/10/03 02:09:13;;;;;;;7.97;5.63;;;17.50;99.90;;;;;;457106;260;29110;-72
2023/10/03 02:11:14;;;;;;;6.87;5.50;;;17.50;99.90;;;;;;457077;260;28948;-71
2023/10/03 02:13:15;;;;;;;7.73;5.90;;;17.60;99.90;;;;;;457096;260;29079;-71
2023/10/03 02:15:16;;;;;;;8.00;5.70;;;17.50;99.90;;;;;;457097;260;29055;-71
2023/10/03 02:17:17;;;;;;;8.33;5.70;;;17.40;99.90;;;;;;457111;260;28946;-72
2023/10/03 02:19:20;;;;;;;7.63;5.73;;;17.50;99.90;;;;;;457105;260;29098;-73
2023/10/03 02:21:20;;;;;;;11.53;5.13;;;17.50;99.90;;;;;;457087;256;29067;-71
2023/10/03 02:23:22;;;;;;;7.83;5.80;;;17.60;99.90;;;;;;457090;260;29010;-71
2023/10/03 02:25:22;;;;;;;9.50;6.10;;;17.70;99.90;;;;;;457077;260;29120;-72
2023/10/03 02:27:26;;;;;;;9.17;5.73;;;17.80;99.90;;;;;;457132;260;29411;-71
2023/10/03 02:29:25;;;;;;;10.07;5.40;;;17.70;99.90;;;;;;457045;260;29483;-71
2023/10/03 02:31:26;;;;;;;7.90;5.43;;;17.70;99.90;;;;;;457077;260;29417;-71
2023/10/03 02:33:28;;;;;;;9.60;5.90;;;17.70;99.90;;;;;;457050;260;29083;-71
2023/10/03 02:35:29;;;;;;;8.07;5.80;;;17.70;99.90;;;;;;457089;260;29000;-73
2023/10/03 02:37:30;;;;;;;9.37;5.30;;;17.70;99.90;;;;;;457080;260;28991;-71
2023/10/03 02:39:39;;;;;;;11.00;5.90;;;17.70;99.90;;;;;;457071;260;29123;-72
2023/10/03 02:41:34;;;;;;;12.27;6.87;;;17.60;99.90;;;;;;457039;255;28959;-71
2023/10/03 02:43:38;;;;;;;8.50;5.50;;;17.70;99.90;;;;;;457096;260;28963;-71
2023/10/03 02:45:35;;;;;;;6.57;4.90;;;17.70;99.90;;;;;;456853;260;29036;-71
2023/10/03 02:47:39;;;;;;;7.90;5.47;;;17.70;99.90;;;;;;457102;260;29038;-71
2023/10/03 02:49:38;;;;;;;7.97;5.50;;;17.70;99.90;;;;;;457077;260;29539;-71
2023/10/03 02:51:41;;;;;;;9.63;5.53;;;17.80;99.90;;;;;;457083;260;29641;-72
2023/10/03 02:53:40;;;;;;;8.13;5.27;;;17.80;99.90;;;;;;457041;260;29479;-72
2023/10/03 02:55:44;;;;;;;10.20;5.80;;;17.80;99.90;;;;;;457110;260;29475;-71
2023/10/03 02:57:42;;;;;;;7.50;5.40;;;17.80;99.90;;;;;;456910;260;28978;-72
2023/10/03 02:59:44;;;;;;;14.97;6.20;;;17.80;99.90;;;;;;457113;260;28997;-71
2023/10/03 03:01:52;;;;;;;10.57;6.03;;;17.80;99.90;;;;;;457107;260;29001;-72
2023/10/03 03:03:48;;;;;;;7.87;6.07;;;17.70;99.90;;;;;;457062;260;29485;-71
2023/10/03 03:05:49;;;;;;;11.50;6.20;;;17.70;99.90;;;;;;457071;260;29570;-74
2023/10/03 03:07:57;;;;;;;7.23;5.57;;;17.80;99.90;;;;;;457131;258;28997;-71
2023/10/03 03:09:56;;;;;;;8.80;5.07;;;17.70;99.90;;;;;;456956;260;29182;-72
2023/10/03 03:11:53;;;;;;;7.23;5.20;;;17.70;99.90;;;;;;457052;260;28955;-71
2023/10/03 03:13:54;;;;;;;8.67;5.53;;;17.80;99.90;;;;;;457103;260;29083;-72
2023/10/03 03:16:03;;;;;;;11.70;5.60;;;17.80;99.90;;;;;;457108;260;29013;-72
2023/10/03 03:18:02;;;;;;;7.27;5.60;;;17.90;99.90;;;;;;457022;260;29031;-71
2023/10/03 03:20:04;;;;;;;8.87;5.73;;;17.90;99.90;;;;;;457087;260;28987;-72
2023/10/03 03:22:05;;;;;;;8.00;6.03;;;17.70;99.90;;;;;;457054;260;29043;-72
2023/10/03 03:24:09;;;;;;;9.50;5.40;;;17.70;99.90;;;;;;457106;260;28990;-71
2023/10/03 03:26:47;;;;;;;9.60;5.80;;;17.70;99.90;;;;;;457041;260;29088;-70
2023/10/03 03:28:14;;;;;;;8.23;5.60;;;17.70;99.90;;;;;;455075;260;29486;-71
2023/10/03 03:30:33;;;;;;;7.70;6.03;;;17.70;99.90;;;;;;457065;257;29562;-73
2023/10/03 03:32:19;;;;;;;6.00;5.10;;;17.70;99.90;;;;;;455939;260;29089;-72
2023/10/03 03:34:21;;;;;;;8.77;6.13;;;17.70;99.90;;;;;;457105;260;29021;-71
2023/10/03 03:36:22;;;;;;;7.13;5.70;;;17.60;99.90;;;;;;457069;260;28999;-72
2023/10/03 03:38:23;;;;;;;8.67;5.73;;;17.60;99.90;;;;;;457100;260;28951;-71
2023/10/03 03:40:31;;;;;;;9.50;5.57;;;17.60;99.90;;;;;;457065;260;29091;-71
2023/10/03 03:42:28;;;;;;;6.43;4.87;;;17.60;99.90;;;;;;456890;260;29412;-71
2023/10/03 03:44:30;;;;;;;9.20;5.67;;;17.60;99.90;;;;;;457189;252;29396;-72
2023/10/03 03:46:31;;;;;;;6.63;5.20;;;17.70;99.90;;;;;;449160;263;29011;-71
2023/10/03 03:48:34;;;;;;;9.20;6.07;;;17.60;99.90;;;;;;449157;263;29047;-71
2023/10/03 03:50:34;;;;;;;11.53;5.73;;;17.60;99.90;;;;;;449187;263;28927;-71
2023/10/03 03:52:35;;;;;;;10.33;5.90;;;17.70;99.90;;;;;;449203;263;28973;-71
2023/10/03 03:54:36;;;;;;;10.47;5.80;;;17.60;99.90;;;;;;449161;263;28957;-71
2023/10/03 03:56:38;;;;;;;13.33;5.50;;;17.60;99.90;;;;;;452238;259;28836;-71
2023/10/03 03:58:40;;;;;;;11.07;6.03;;;17.60;99.90;;;;;;475393;250;28894;-71
2023/10/03 04:00:44;;;;;;;8.53;5.67;;;17.60;99.90;;;;;;459148;258;29450;-75
2023/10/03 04:02:41;;;;;;;7.63;5.53;;;17.60;99.90;;;;;;467781;254;29434;-71
2023/10/03 04:04:42;;;;;;;6.40;4.90;;;17.60;99.90;;;;;;471071;250;29419;-72
2023/10/03 04:06:43;;;;;;;8.20;5.77;;;17.60;99.90;;;;;;449347;264;29521;-71
2023/10/03 04:08:48;;;;;;;8.33;6.10;;;17.60;99.90;;;;;;458615;259;28873;-71
2023/10/03 04:10:46;;;;;;;6.30;5.20;;;17.50;99.90;;;;;;450633;262;29104;-74
2023/10/03 04:12:49;;;;;;;7.77;5.20;;;17.50;99.90;;;;;;453940;259;28835;-73
2023/10/03 04:14:48;;;;;;;8.43;5.43;;;17.50;99.90;;;;;;455176;261;28936;-71
2023/10/03 04:16:51;;;;;;;7.13;5.40;;;17.50;99.90;;;;;;460111;258;28988;-71
2023/10/03 04:18:51;;;;;;;7.13;4.77;;;17.60;99.90;;;;;;460108;258;28973;-71
2023/10/03 04:20:53;;;;;;;8.40;5.47;;;17.60;99.90;;;;;;460126;258;28964;-71
2023/10/03 04:22:53;;;;;;;7.37;5.40;;;17.50;99.90;;;;;;460119;258;29368;-71
2023/10/03 04:24:55;;;;;;;7.00;4.93;;;17.50;99.90;;;;;;460135;258;29418;-72
2023/10/03 04:26:57;;;;;;;9.70;6.10;;;17.40;99.90;;;;;;460097;258;28944;-72
2023/10/03 04:28:57;;;;;;;7.80;5.50;;;17.40;99.90;;;;;;460125;258;29109;-71
2023/10/03 04:30:59;;;;;;;8.00;5.60;;;17.40;99.90;;;;;;460097;258;28954;-72
2023/10/03 04:33:00;;;;;;;11.70;5.70;;;17.40;99.90;;;;;;460125;258;28981;-71
2023/10/03 04:35:05;;;;;;;7.03;5.30;;;17.30;99.90;;;;;;460110;258;29489;-71
2023/10/03 04:37:02;;;;;;;8.50;5.67;;;17.40;99.90;;;;;;460048;257;29432;-73
2023/10/03 04:39:04;;;;;;;9.47;5.43;;;17.30;99.90;;;;;;460135;258;29405;-72
2023/10/03 04:41:09;;;;;;;8.73;6.10;;;17.30;99.90;;;;;;460129;258;28958;-71
2023/10/03 04:45:27;;;;;;;10.70;6.33;;;17.30;99.90;;;;;;473895;247;28765;-74
2023/10/03 04:47:28;;;;;;;12.03;6.50;;;17.30;99.90;;;;;;467882;254;28773;-71
2023/10/03 04:49:29;;;;;;;10.50;6.10;;;17.30;99.90;;;;;;481151;247;28758;-71
2023/10/03 04:51:30;;;;;;;10.70;5.73;;;17.30;99.90;;;;;;481162;247;28819;-73
2023/10/03 04:53:32;;;;;;;7.73;6.03;;;17.30;99.90;;;;;;481155;247;29286;-71
2023/10/03 04:55:33;;;;;;;9.00;6.00;;;17.20;99.90;;;;;;481153;247;29249;-71
2023/10/03 04:57:34;;;;;;;9.60;5.53;;;17.30;99.90;;;;;;481160;247;29164;-71
2023/10/03 04:59:35;;;;;;;9.70;6.10;;;17.40;99.90;;;;;;481159;246;28752;-71
2023/10/03 05:01:37;;;;;;;9.27;5.90;;;17.40;99.90;;;;;;481178;247;28755;-73
2023/10/03 05:03:39;;;;;;;7.63;5.60;;;17.30;99.90;;;;;;481175;247;28697;-71
2023/10/03 05:05:39;;;;;;;8.20;5.70;;;17.30;99.90;;;;;;481137;247;28811;-71
2023/10/03 05:07:40;;;;;;;9.20;6.53;;;17.30;99.90;;;;;;481157;247;28823;-71
2023/10/03 05:09:42;;;;;;;6.50;5.27;;;17.30;99.90;;;;;;481159;247;28752;-71
2023/10/03 05:11:43;;;;;;;8.50;5.47;;;17.30;99.90;;;;;;481156;247;28750;-71
2023/10/03 05:13:45;;;;;;;8.63;5.47;;;17.30;99.90;;;;;;481145;247;28783;-70
2023/10/03 05:15:45;;;;;;;8.67;5.77;;;17.20;99.90;;;;;;481143;247;28740;-71
2023/10/03 05:17:47;;;;;;;8.40;5.47;;;17.20;99.90;;;;;;481024;247;29577;-71
2023/10/03 05:19:49;;;;;;;7.97;5.43;;;17.10;99.90;;;;;;481148;247;29263;-70
2023/10/03 05:21:49;;;;;;;10.07;6.60;;;17.20;99.90;;;;;;481141;247;29231;-71
2023/10/03 05:23:52;;;;;;;12.23;6.63;;;17.30;99.90;;;;;;481153;247;28870;-71
2023/10/03 05:25:52;;;;;;;7.93;5.73;;;17.30;99.90;;;;;;480916;245;28895;-71
2023/10/03 05:27:53;;;;;;;12.60;7.10;;;17.30;99.90;;;;;;481110;247;28767;-72
2023/10/03 05:29:54;;;;;;;8.83;5.90;;;17.40;99.90;;;;;;481134;247;28715;-71
2023/10/03 05:31:56;;;;;;;10.53;6.20;;;17.30;99.90;;;;;;481135;247;28754;-71
2023/10/03 05:33:57;;;;;;;7.90;6.37;;;17.40;99.90;;;;;;481133;247;28801;-71
2023/10/03 05:35:58;;;;;;;12.03;6.47;;;17.30;99.90;;;;;;481103;247;28756;-71
2023/10/03 05:37:59;;;;;;;15.97;6.20;;;17.30;99.90;;;;;;481148;247;29199;-73
2023/10/03 05:40:11;;;;;;;8.43;5.87;;;17.40;99.90;;;;;;481096;247;29257;-71
2023/10/03 05:42:02;;;;;;;9.80;5.87;;;17.40;99.90;;;;;;480299;247;29219;-71
2023/10/03 05:44:03;;;;;;;10.40;5.87;;;17.40;99.90;;;;;;481136;247;28828;-71
2023/10/03 05:46:04;;;;;;;7.07;5.47;;;17.40;99.90;;;;;;481110;247;28730;-71
2023/10/03 05:48:06;;;;;;;7.97;6.17;;;17.30;99.90;;;;;;481123;247;28767;-72
2023/10/03 05:50:07;;;;;;;6.70;5.17;;;17.30;99.90;;;;;;481146;247;28796;-71
2023/10/03 05:52:08;;;;;;;7.53;5.50;;;17.30;99.90;;;;;;481110;247;28743;-71
2023/10/03 05:54:09;;;;;;;10.37;6.00;;;17.30;99.90;;;;;;481147;247;28736;-71
2023/10/03 05:56:11;;;;;;;11.27;5.67;;;17.30;99.90;;;;;;480908;247;28711;-71
2023/10/03 05:58:12;;;;;;;10.30;6.47;;;17.30;99.90;;;;;;479489;248;28877;-72
2023/10/03 06:00:18;;;;;;;12.23;6.80;;;17.40;99.90;;;;;;479601;248;29416;-71
2023/10/03 06:02:14;;;;;;;13.93;7.03;;;17.30;99.90;;;;;;478930;246;29337;-71
2023/10/03 06:04:16;;;;;;;12.93;6.77;;;17.30;99.90;;;;;;479311;248;28889;-73
2023/10/03 06:06:17;;;;;;;9.50;6.23;;;17.30;99.90;;;;;;478727;248;28865;-71
2023/10/03 06:08:18;;;;;;;9.77;6.00;;;17.30;99.90;;;;;;475107;249;28786;-71
2023/10/03 06:10:19;;;;;;;8.80;6.20;;;17.30;99.90;;;;;;475131;249;28740;-71
2023/10/03 06:12:23;;;;;;;7.03;5.40;;;17.30;99.90;;;;;;475155;248;28766;-70
2023/10/03 06:14:22;;;;;;;8.40;5.67;;;17.30;99.90;;;;;;474986;249;28868;-72
2023/10/03 06:16:23;;;;;;;7.77;5.50;;;17.30;99.90;;;;;;475136;248;28830;-72
2023/10/03 06:18:24;;;;;;;14.60;6.70;;;17.30;99.90;;;;;;475119;249;28800;-71
2023/10/03 06:20:26;;;;;;;9.40;6.57;;;17.30;99.90;;;;;;478216;248;30151;-71
2023/10/03 06:22:27;;;;;;;8.03;5.53;;;17.40;99.90;;;;;;479526;248;29254;-71
2023/10/03 06:24:29;;;;;;;10.67;6.30;;;17.30;99.90;;;;;;479616;248;29343;-72
2023/10/03 06:26:29;;;;;;;8.60;6.03;;;17.40;99.90;;;;;;478553;244;29427;-72
2023/10/03 06:28:31;;;;;;;6.93;5.20;;;17.40;99.90;;;;;;479025;248;28988;-71
2023/10/03 06:30:32;;;;;;;7.30;5.37;;;17.40;99.90;;;;;;475587;246;28950;-71
2023/10/03 06:32:33;;;;;;;8.43;5.20;;;17.50;99.90;;;;;;477347;248;28830;-71
2023/10/03 06:34:34;;;;;;;10.70;6.00;;;17.50;99.90;;;;;;467832;246;28962;-71
2023/10/03 06:36:36;;;;;;;8.80;5.67;;;17.60;99.90;;;;;;460163;257;28890;-71
2023/10/03 06:38:37;;;;;;;11.70;6.20;;;17.50;99.90;;;;;;453857;262;29048;-72
2023/10/03 06:40:40;;;;;;;11.10;7.00;;;17.50;99.90;;;;;;454141;262;29018;-74
2023/10/03 06:42:40;;;;;;;9.10;5.93;;;17.60;99.90;;;;;;453602;262;29382;-71
2023/10/03 06:44:44;;;;;;;9.70;5.73;;;17.70;99.90;;;;;;461950;247;29577;-71
2023/10/03 06:46:45;;;;;;;8.40;5.43;;;17.70;99.90;;;;;;463908;255;28949;-71
2023/10/03 06:48:46;;;;;;;11.03;5.83;;;17.80;99.90;;;;;;459503;257;28942;-71
2023/10/03 06:50:47;;;;;;;17.23;5.63;;;17.80;99.90;;;;;;463244;251;29344;-74
2023/10/03 06:52:49;;;;;;;9.40;6.00;;;18.00;99.90;;;;;;464910;254;29375;-72
2023/10/03 06:54:50;;;;;;;8.23;5.47;;;18.00;99.90;;;;;;466510;249;29482;-71
2023/10/03 06:56:51;;;;;;;9.37;5.90;;;18.00;99.90;;;;;;465837;254;28896;-73
2023/10/03 06:58:52;;;;;;;11.53;5.80;;;18.10;99.90;;;;;;460693;258;28955;-74
2023/10/03 07:00:54;;;;;;;10.90;6.13;;;18.10;99.90;;;;;;445158;267;29033;-74
2023/10/03 07:02:56;;;;;;;14.37;5.87;;;18.20;99.90;;;;;;445411;267;29063;-72
2023/10/03 07:04:56;;;;;;;9.13;6.00;;;18.10;99.90;;;;;;445256;267;29140;-73
2023/10/03 07:06:57;;;;;;;10.43;5.87;;;18.20;99.90;;;;;;453332;262;28927;-73
2023/10/03 07:08:59;;;;;;;10.33;6.03;;;18.20;99.90;;;;;;445829;267;28946;-75
2023/10/03 07:11:00;;;;;;;11.73;6.10;;;18.20;99.90;;;;;;453523;262;29444;-71
2023/10/03 07:13:02;;;;;;;9.13;6.67;;;18.20;99.90;;;;;;445853;267;29431;-71
2023/10/03 07:15:02;;;;;;;7.33;5.53;;;18.20;99.90;;;;;;460818;253;29427;-71
2023/10/03 07:17:04;;;;;;;12.00;5.70;;;18.20;99.90;;;;;;460202;258;29349;-73
2023/10/03 07:19:05;;;;;;;8.67;5.93;;;18.10;99.90;;;;;;460350;257;28982;-72
2023/10/03 07:21:06;;;;;;;11.00;6.20;;;18.10;99.90;;;;;;460355;258;28849;-71
2023/10/03 07:23:07;;;;;;;9.33;6.27;;;18.10;99.90;;;;;;460249;258;28914;-71
2023/10/03 07:25:09;;;;;;;7.47;5.63;;;18.20;99.90;;;;;;442217;248;28990;-73
2023/10/03 07:27:13;;;;;;;8.83;5.63;;;18.10;99.90;;;;;;439474;269;29012;-71
2023/10/03 07:29:11;;;;;;;12.37;5.60;;;18.10;99.90;;;;;;439394;270;28996;-71
2023/10/03 07:31:13;;;;;;;9.53;6.27;;;18.10;99.90;;;;;;439550;269;28937;-71
2023/10/03 07:33:14;;;;;;;8.83;5.57;;;18.20;99.90;;;;;;439573;269;29467;-74
2023/10/03 07:35:17;;;;;;;9.80;6.67;;;18.30;99.90;;;;;;439637;269;28989;-72
2023/10/03 07:37:17;;;;;;;11.40;6.00;;;18.30;99.90;;;;;;439555;269;28981;-71
2023/10/03 07:39:18;;;;;;;10.37;6.13;;;18.40;99.90;;;;;;439552;270;29457;-73
2023/10/03 07:41:21;;;;;;;12.20;6.67;;;18.40;99.90;;;;;;439608;269;29438;-71
2023/10/03 07:43:20;;;;;;;9.47;6.53;;;18.40;99.90;;;;;;439326;269;29533;-73
2023/10/03 07:45:22;;;;;;;14.27;5.93;;;18.40;99.90;;;;;;439454;269;28977;-72
2023/10/03 07:47:23;;;;;;;10.80;6.30;;;18.50;99.90;;;;;;439407;269;28931;-75
2023/10/03 07:49:24;;;;;;;8.20;5.37;;;18.60;99.90;;;;;;439462;270;29062;-74
2023/10/03 07:51:29;;;;;;;7.83;6.00;;;18.70;99.90;;;;;;439552;270;28989;-74
2023/10/03 07:53:29;;;;;;;17.07;6.43;;;18.70;99.90;;;;;;447320;257;28972;-77
2023/10/03 07:55:28;;;;;;;14.20;6.33;;;18.80;99.90;;;;;;468008;254;28979;-74
2023/10/03 07:57:30;;;;;;;9.30;5.90;;;18.80;99.90;;;;;;468769;252;28946;-72
2023/10/03 07:59:30;;;;;;;10.50;6.30;;;18.90;99.90;;;;;;468674;252;29401;-72
2023/10/03 08:01:31;;;;;;;9.93;5.53;;;18.90;99.90;;;;;;468248;252;29422;-73
2023/10/03 08:03:33;;;;;;;8.27;6.37;;;18.90;99.90;;;;;;467956;252;29394;-73
2023/10/03 08:05:34;;;;;;;8.60;6.20;;;18.90;99.90;;;;;;477653;249;29301;-74
2023/10/03 08:07:38;;;;;;;9.30;6.30;;;18.90;99.90;;;;;;475752;250;28905;-73
2023/10/03 08:09:36;;;;;;;12.70;6.70;;;18.80;99.90;;;;;;473815;250;28921;-73
2023/10/03 08:11:38;;;;;;;10.20;6.20;;;18.80;99.90;;;;;;473965;250;28819;-76
2023/10/03 08:13:41;;;;;;;8.53;5.60;;;18.70;99.90;;;;;;470199;250;29619;-73
2023/10/03 08:15:41;;;;;;;13.43;7.00;;;18.80;99.90;;;;;;459647;259;28874;-73
2023/10/03 08:17:41;;;;;;;10.50;6.50;;;18.80;99.90;;;;;;461992;257;28827;-73
2023/10/03 08:19:45;;;;;;;13.57;6.60;;;18.80;99.90;;;;;;461607;257;28996;-73
2023/10/03 08:21:44;;;;;;;9.30;6.70;;;18.80;99.90;;;;;;464615;253;29397;-74
2023/10/03 08:23:51;;;;;;;9.67;6.63;;;18.80;99.90;;;;;;469173;253;29261;-72
2023/10/03 08:25:46;;;;;;;10.93;5.90;;;18.90;99.90;;;;;;468673;253;29317;-72
2023/10/03 08:27:48;;;;;;;11.90;6.50;;;18.90;99.90;;;;;;468751;253;28838;-74
2023/10/03 08:29:53;;;;;;;9.43;6.67;;;18.90;99.90;;;;;;468995;253;28836;-73
2023/10/03 08:31:59;;;;;;;8.87;6.37;;;18.90;99.90;;;;;;468973;253;28787;-71
2023/10/03 08:34:01;;;;;;;12.33;7.50;;;18.90;99.90;;;;;;472876;249;29369;-74
2023/10/03 08:36:01;;;;;;;10.30;6.90;;;18.90;99.90;;;;;;477511;249;30193;-75
2023/10/03 08:38:04;;;;;;;10.93;7.10;;;18.90;99.90;;;;;;480543;247;29002;-73
2023/10/03 08:40:19;;;;;;;10.23;7.30;;;18.90;99.90;;;;;;472602;251;28852;-73
2023/10/03 08:42:12;;;;;;;11.60;6.03;;;19.00;99.90;;;;;;472341;251;28798;-73
2023/10/03 08:44:06;;;;;;;9.67;6.63;;;19.00;99.90;;;;;;470606;251;28951;-73
2023/10/03 08:46:09;;;;;;;9.40;6.00;;;19.00;99.90;;;;;;480609;247;28875;-74
2023/10/03 08:48:09;;;;;;;8.67;6.10;;;19.00;99.90;;;;;;480177;247;28882;-74
2023/10/03 08:50:29;;;;;;;9.60;6.20;;;19.00;99.90;;;;;;472468;251;28935;-75
2023/10/03 08:52:17;;;;;;;16.17;6.83;;;18.90;99.90;;;;;;471553;252;29377;-73
2023/10/03 08:54:19;;;;;;;9.50;6.30;;;18.90;99.90;;;;;;472428;251;28937;-73
2023/10/03 08:56:20;;;;;;;8.23;5.80;;;19.00;99.90;;;;;;472440;252;28986;-74
2023/10/03 08:58:25;;;;;;;9.20;5.70;;;19.00;99.90;;;;;;472418;250;28904;-73
2023/10/03 09:00:25;;;;;;;8.27;5.97;;;19.10;99.90;;;;;;472197;252;28961;-74
2023/10/03 09:02:24;;;;;;;11.90;7.27;;;19.20;99.90;;;;;;472084;252;28911;-73
2023/10/03 09:04:25;;;;;;;10.40;7.30;;;19.30;99.90;;;;;;472426;252;29033;-73
2023/10/03 09:06:26;;;;;;;8.93;6.13;;;19.30;99.90;;;;;;472448;252;29480;-73
2023/10/03 09:08:27;;;;;;;14.03;7.33;;;19.20;99.90;;;;;;472437;252;29340;-74
2023/10/03 09:10:29;;;;;;;13.27;6.60;;;19.30;99.90;;;;;;472461;252;29511;-74
2023/10/03 09:12:32;;;;;;;13.13;6.87;;;19.20;99.90;;;;;;472446;252;29002;-73
2023/10/03 09:14:31;;;;;;;10.43;6.40;;;19.30;99.90;;;;;;472354;252;29008;-73
2023/10/03 09:16:38;;;;;;;7.60;5.93;;;19.30;99.90;;;;;;472454;252;29040;-75
2023/10/03 09:18:43;;;;;;;9.60;6.70;;;19.30;99.90;;;;;;472074;252;28898;-73
2023/10/03 09:20:44;;;;;;;8.17;6.60;;;19.40;99.90;;;;;;472461;252;28903;-73
2023/10/03 09:22:46;;;;;;;9.00;6.07;;;19.60;99.90;;;;;;472443;252;29415;-74
2023/10/03 09:24:47;;;;;;;9.47;6.23;;;19.70;99.90;;;;;;472377;252;29399;-74
2023/10/03 09:26:51;;;;;;;9.90;6.67;;;19.70;99.90;;;;;;472447;252;29408;-72
2023/10/03 09:28:51;;;;;;;9.43;7.53;;;19.80;99.90;;;;;;472237;252;29520;-71
2023/10/03 09:30:50;;;;;;;9.87;6.70;;;19.90;99.90;;;;;;472368;252;28943;-74
2023/10/03 09:32:52;;;;;;;8.57;6.20;;;20.00;99.90;;;;;;472458;252;29007;-73
2023/10/03 09:35:09;;;;;;;9.00;6.30;;;20.00;99.90;;;;;;472464;252;29118;-74
2023/10/03 09:37:03;;;;;;;12.27;6.73;;;20.20;99.90;;;;;;471712;252;29421;-73
2023/10/03 09:39:06;;;;;;;10.33;6.30;;;20.20;99.90;;;;;;472469;252;28966;-73
2023/10/03 09:41:05;;;;;;;9.07;6.83;;;20.30;99.90;;;;;;472314;252;28974;-73
2023/10/03 09:43:16;;;;;;;12.20;6.50;;;20.30;99.90;;;;;;472452;252;28886;-72
2023/10/03 09:45:08;;;;;;;8.90;6.17;;;20.50;99.90;;;;;;471722;252;29386;-73
2023/10/03 09:47:12;;;;;;;9.90;6.20;;;20.60;99.90;;;;;;472461;252;29429;-73
2023/10/03 09:49:10;;;;;;;10.50;6.40;;;20.60;99.90;;;;;;472257;252;29405;-73
2023/10/03 09:51:13;;;;;;;10.50;6.73;;;20.50;99.90;;;;;;472476;252;28936;-74
2023/10/03 09:53:16;;;;;;;14.40;6.43;;;20.40;99.90;;;;;;472404;252;28935;-74
2023/10/03 09:55:17;;;;;;;9.67;6.67;;;20.40;99.90;;;;;;472280;252;28965;-73
2023/10/03 09:57:18;;;;;;;11.63;6.10;;;20.30;99.90;;;;;;472446;252;28931;-73
2023/10/03 09:59:19;;;;;;;9.87;6.80;;;20.30;99.90;;;;;;472451;252;29106;-73
2023/10/03 10:01:21;;;;;;;10.53;6.87;;;20.30;99.90;;;;;;472484;252;28884;-72
2023/10/03 10:03:28;;;;;;;12.00;7.20;;;20.20;99.90;;;;;;472439;252;28923;-73
2023/10/03 10:05:30;;;;;;;17.50;6.50;;;20.10;99.90;;;;;;472466;252;28973;-74
2023/10/03 10:07:33;;;;;;;13.47;6.50;;;20.00;99.90;;;;;;472454;252;28933;-73
2023/10/03 10:09:32;;;;;;;11.40;6.30;;;20.00;99.90;;;;;;472286;252;28945;-73
2023/10/03 10:11:33;;;;;;;8.30;6.03;;;20.00;99.90;;;;;;472457;252;28933;-74
2023/10/03 10:13:41;;;;;;;11.10;6.63;;;20.00;99.90;;;;;;472470;252;28891;-73
2023/10/03 10:15:39;;;;;;;12.20;7.10;;;20.00;99.90;;;;;;472260;252;28900;-73
2023/10/03 10:17:45;;;;;;;10.50;6.20;;;20.00;99.90;;;;;;472395;252;29544;-73
2023/10/03 10:19:41;;;;;;;11.47;6.63;;;20.00;99.90;;;;;;471970;252;29452;-74
2023/10/03 10:21:48;;;;;;;11.60;6.23;;;20.00;99.90;;;;;;472495;252;29349;-72
2023/10/03 10:23:44;;;;;;;10.70;6.30;;;20.00;99.90;;;;;;472136;252;28959;-73
2023/10/03 10:26:18;;;;;;;8.40;6.13;;;20.10;99.90;;;;;;472438;252;28966;-73
2023/10/03 10:27:52;;;;;;;10.57;6.30;;;20.40;99.90;;;;;;468890;252;28925;-73
2023/10/03 10:29:53;;;;;;;14.43;7.07;;;20.60;99.90;;;;;;472233;252;29325;-76
2023/10/03 10:31:58;;;;;;;8.53;6.63;;;20.70;99.90;;;;;;471918;252;29286;-73